Time;durP1;ratioP1;P1;durP2;ratioP2;P2;SDS_P1;SDS_P2;PMS_P1;PMS_P2;Temp;Humidity;BMP_temperature;BMP_pressure;BME280_temperature;BME280_humidity;BME280_pressure;Samples;Min_cycle;Max_cycle;Signal;HPM_P1;HPM_P2
2022/03/22 00:01:39;;;;;;;36.53;19.63;;;;;;;3.06;45.00;102308.50;5096141;28;20543;-76
2022/03/22 00:04:08;;;;;;;38.67;19.63;;;;;;;3.16;44.98;102302.38;5095583;28;20044;-77
2022/03/22 00:06:38;;;;;;;37.53;18.52;;;;;;;3.08;45.44;102312.00;5095739;28;20041;-77
2022/03/22 00:09:06;;;;;;;34.75;18.48;;;;;;;2.99;45.66;102309.34;5095548;28;20050;-78
2022/03/22 00:11:35;;;;;;;36.80;19.13;;;;;;;2.91;45.75;102301.44;5095844;28;20044;-77
2022/03/22 00:14:06;;;;;;;33.95;17.63;;;;;;;2.92;45.88;102305.81;5096104;28;20126;-76
2022/03/22 00:16:34;;;;;;;36.88;19.33;;;;;;;2.71;46.33;102306.63;5077665;28;20109;-76
2022/03/22 00:19:22;;;;;;;34.78;17.63;;;;;;;2.67;46.67;102296.91;5095355;28;20056;-76
2022/03/22 00:21:52;;;;;;;36.47;18.92;;;;;;;2.60;46.95;102303.00;5095873;28;20047;-76
2022/03/22 00:24:20;;;;;;;32.60;18.02;;;;;;;2.66;46.70;102305.69;5095230;28;20047;-76
2022/03/22 00:26:48;;;;;;;33.33;17.65;;;;;;;2.93;46.05;102296.16;5095737;28;20046;-76
2022/03/22 00:29:17;;;;;;;34.17;18.52;;;;;;;2.83;46.82;102296.13;5095404;28;20052;-76
2022/03/22 00:31:45;;;;;;;33.15;18.20;;;;;;;2.65;47.30;102301.31;5077763;28;20074;-76
2022/03/22 00:34:14;;;;;;;34.25;18.20;;;;;;;2.71;47.17;102301.34;5095244;28;20046;-78
2022/03/22 00:36:43;;;;;;;31.58;17.60;;;;;;;2.70;46.95;102298.66;5095703;28;20159;-77
2022/03/22 00:39:13;;;;;;;31.58;17.73;;;;;;;2.72;47.19;102303.09;5095363;28;20074;-77
2022/03/22 00:41:41;;;;;;;35.22;17.52;;;;;;;2.74;47.09;102303.97;5095362;28;20040;-77
2022/03/22 00:44:09;;;;;;;31.02;16.95;;;;;;;2.63;46.86;102300.41;5095049;28;20052;-77
2022/03/22 00:46:40;;;;;;;30.88;17.10;;;;;;;2.52;47.53;102300.38;5095806;28;20044;-77
2022/03/22 00:49:08;;;;;;;29.23;16.05;;;;;;;2.68;46.75;102295.16;5095192;28;20043;-75
2022/03/22 00:51:36;;;;;;;32.97;17.40;;;;;;;2.56;47.38;102291.59;5095119;28;20040;-77
2022/03/22 00:54:05;;;;;;;31.27;16.92;;;;;;;2.53;47.52;102290.72;5095292;28;20075;-77
2022/03/22 00:56:34;;;;;;;32.15;16.50;;;;;;;2.58;46.85;102287.19;5076221;28;20051;-77
2022/03/22 01:01:49;;;;;;;33.63;16.75;;;;;;;2.54;47.45;102295.09;5094822;28;20047;-77
2022/03/22 01:04:17;;;;;;;30.65;15.93;;;;;;;2.45;47.55;102287.16;5094702;28;20040;-77
2022/03/22 01:06:46;;;;;;;31.52;16.75;;;;;;;2.27;48.00;102291.44;5094957;28;20131;-77
2022/03/22 01:09:14;;;;;;;33.90;16.70;;;;;;;2.21;48.36;102294.00;5094704;28;20089;-76
2022/03/22 01:11:43;;;;;;;34.33;16.83;;;;;;;2.20;48.31;102294.00;5094713;28;20040;-77
2022/03/22 01:14:11;;;;;;;28.67;16.77;;;;;;;2.21;48.13;102295.75;5094313;28;20070;-78
2022/03/22 01:16:40;;;;;;;35.20;17.67;;;;;;;2.26;47.57;102299.31;5094355;28;20047;-76
2022/03/22 01:19:08;;;;;;;32.00;16.88;;;;;;;2.34;47.43;102283.56;5094784;28;20381;-76
2022/03/22 01:21:37;;;;;;;28.08;15.18;;;;;;;2.30;47.24;102294.06;5094658;28;20389;-77
2022/03/22 01:24:07;;;;;;;30.85;16.88;;;;;;;2.27;47.33;102288.78;5094564;28;20089;-77
2022/03/22 01:26:36;;;;;;;26.73;16.05;;;;;;;2.24;47.51;102286.16;5094494;28;20044;-77
2022/03/22 01:29:06;;;;;;;31.73;16.90;;;;;;;2.44;47.22;102286.28;5094628;28;20040;-76
2022/03/22 01:31:34;;;;;;;30.65;16.80;;;;;;;2.51;46.69;102284.53;5094008;28;20089;-76
2022/03/22 01:34:03;;;;;;;30.45;15.80;;;;;;;2.63;46.73;102281.97;5094493;28;20526;-80
2022/03/22 01:36:32;;;;;;;31.85;16.60;;;;;;;2.53;46.88;102282.81;5093877;28;20443;-77
2022/03/22 01:39:00;;;;;;;28.77;15.32;;;;;;;2.46;47.32;102275.72;5094069;28;20050;-78
2022/03/22 01:41:29;;;;;;;33.22;16.55;;;;;;;2.40;47.09;102288.84;5093810;28;20044;-78
2022/03/22 01:43:57;;;;;;;34.08;16.65;;;;;;;2.36;47.50;102279.19;5094200;28;20040;-77
2022/03/22 01:46:27;;;;;;;32.70;17.13;;;;;;;2.39;47.44;102276.56;5094190;28;20104;-76
2022/03/22 01:48:59;;;;;;;30.83;15.85;;;;;;;2.34;48.17;102275.66;5094371;28;20075;-78
2022/03/22 01:51:28;;;;;;;28.45;16.05;;;;;;;2.10;48.62;102276.38;5093894;28;20036;-79
2022/03/22 01:53:57;;;;;;;28.73;16.42;;;;;;;2.09;48.40;102277.25;5093853;28;20405;-79
2022/03/22 01:56:26;;;;;;;29.77;16.33;;;;;;;2.06;48.80;102278.13;5093508;28;20135;-78
2022/03/22 01:58:55;;;;;;;34.20;16.52;;;;;;;2.14;48.41;102270.28;5094057;28;20040;-79
2022/03/22 02:06:59;;;;;;;36.35;16.15;;;;;;;2.12;48.72;102266.72;5093867;28;20036;-76
2022/03/22 02:09:27;;;;;;;32.10;17.10;;;;;;;1.88;49.28;102264.81;5093334;28;20481;-76
2022/03/22 02:11:57;;;;;;;33.55;16.48;;;;;;;1.93;49.35;102266.63;5093878;28;20040;-76
2022/03/22 02:14:26;;;;;;;30.45;16.90;;;;;;;1.84;49.39;102263.06;5093091;28;20127;-77
2022/03/22 02:16:54;;;;;;;28.83;15.35;;;;;;;1.88;49.30;102270.09;5093824;28;20044;-77
2022/03/22 02:19:26;;;;;;;28.08;15.98;;;;;;;1.87;48.96;102270.97;5093550;28;20130;-76
2022/03/22 02:22:02;;;;;;;28.45;15.73;;;;;;;1.73;49.82;102262.94;5076071;28;20443;-76
2022/03/22 02:24:32;;;;;;;29.25;16.15;;;;;;;1.63;50.20;102264.63;5093032;28;20073;-75
2022/03/22 02:27:00;;;;;;;27.85;15.20;;;;;;;1.63;49.80;102264.63;5093556;28;20040;-76
2022/03/22 02:29:29;;;;;;;30.17;15.23;;;;;;;1.64;49.55;102263.78;5093219;28;20072;-76
2022/03/22 02:31:59;;;;;;;26.92;15.27;;;;;;;1.66;49.73;102264.66;5093143;28;20497;-76
2022/03/22 02:34:27;;;;;;;27.08;15.07;;;;;;;1.73;49.31;102262.94;5075357;28;20059;-76
2022/03/22 02:37:01;;;;;;;;;;;;;;;1.89;48.87;102266.59;5093965;28;20363;-76
2022/03/22 02:39:29;;;;;;;28.98;15.98;;;;;;;1.77;48.79;102256.84;5093099;28;20018;-75
2022/03/22 02:41:59;;;;;;;25.77;15.07;;;;;;;1.58;49.89;102265.47;5093440;28;20050;-76
2022/03/22 02:44:27;;;;;;;27.55;15.05;;;;;;;1.66;49.47;102264.66;5092823;28;20135;-76
2022/03/22 02:46:55;;;;;;;30.42;15.85;;;;;;;1.61;49.68;102263.72;5092950;28;20040;-76
2022/03/22 02:49:24;;;;;;;30.67;16.40;;;;;;;1.68;49.56;102260.28;5093033;28;20492;-76
2022/03/22 02:51:52;;;;;;;32.00;15.75;;;;;;;1.56;50.06;102270.72;5074925;28;20048;-76
2022/03/22 02:54:20;;;;;;;27.75;15.10;;;;;;;1.83;49.42;102269.16;5092842;28;20078;-76
2022/03/22 02:56:49;;;;;;;27.33;14.18;;;;;;;1.71;49.80;102265.56;5093280;28;20052;-76
2022/03/22 02:59:18;;;;;;;32.83;16.58;;;;;;;1.65;49.66;102270.78;5092983;28;20040;-78
2022/03/22 03:01:47;;;;;;;28.92;15.25;;;;;;;1.71;49.06;102260.31;5092877;28;20050;-76
2022/03/22 03:04:15;;;;;;;27.00;16.27;;;;;;;1.68;49.22;102269.94;5093219;28;20239;-77
2022/03/22 03:06:45;;;;;;;27.88;15.43;;;;;;;1.60;49.13;102268.97;5092888;28;20089;-77
2022/03/22 03:09:14;;;;;;;28.52;15.73;;;;;;;1.63;49.33;102269.88;5093474;28;20036;-76
2022/03/22 03:11:42;;;;;;;28.33;15.30;;;;;;;1.50;49.56;102270.66;5075146;28;20067;-76
2022/03/22 03:16:57;;;;;;;27.85;16.02;;;;;;;1.29;50.93;102286.22;5093211;28;20048;-76
2022/03/22 03:19:25;;;;;;;28.55;15.45;;;;;;;1.16;51.10;102269.44;5094858;28;20064;-77
2022/03/22 03:21:54;;;;;;;33.25;16.20;;;;;;;1.21;51.37;102286.13;5096829;28;20134;-76
2022/03/22 03:24:22;;;;;;;29.25;15.30;;;;;;;1.34;51.16;102280.13;5096431;28;20044;-78
2022/03/22 03:26:50;;;;;;;29.05;15.57;;;;;;;1.62;50.71;102285.66;5097027;28;20044;-77
2022/03/22 03:29:18;;;;;;;32.20;15.73;;;;;;;1.61;50.41;102290.03;5096711;28;20044;-76
2022/03/22 03:31:47;;;;;;;27.02;16.05;;;;;;;1.36;51.54;102285.44;5096907;28;20040;-75
2022/03/22 03:34:17;;;;;;;26.52;15.50;;;;;;;1.25;51.89;102287.03;5097138;28;20124;-78
2022/03/22 03:36:47;;;;;;;30.50;15.48;;;;;;;1.20;52.31;102286.13;5096585;28;20051;-78
2022/03/22 03:39:16;;;;;;;29.55;15.40;;;;;;;1.50;51.52;102285.53;5096837;28;20051;-77
2022/03/22 03:41:57;;;;;;;26.77;14.35;;;;;;;1.62;51.30;102281.28;5096480;28;20097;-77
2022/03/22 03:47:13;;;;;;;28.92;15.48;;;;;;;1.41;52.38;102278.44;5096764;28;20465;-77
2022/03/22 03:49:45;;;;;;;29.30;16.33;;;;;;;1.36;52.96;102282.81;5096186;28;20044;-78
2022/03/22 03:52:15;;;;;;;26.65;15.55;;;;;;;1.24;52.88;102283.53;5096601;28;20068;-78
2022/03/22 03:54:44;;;;;;;28.88;15.88;;;;;;;1.16;53.20;102279.97;5096242;28;20040;-78
2022/03/22 03:57:13;;;;;;;33.35;16.25;;;;;;;1.13;53.61;102291.31;5096145;28;20046;-79
2022/03/22 03:59:42;;;;;;;29.83;15.75;;;;;;;0.99;54.19;102282.41;5096317;28;20044;-79
2022/03/22 04:02:11;;;;;;;30.70;15.90;;;;;;;1.10;54.39;102293.03;5096108;28;20052;-77
2022/03/22 04:04:41;;;;;;;30.23;15.52;;;;;;;1.13;53.89;102291.31;5095920;28;20051;-76
2022/03/22 04:07:13;;;;;;;33.20;15.32;;;;;;;1.17;53.99;102294.88;5095711;28;20051;-76
2022/03/22 04:09:41;;;;;;;30.05;15.65;;;;;;;1.16;54.52;102306.25;5095580;28;20036;-76
2022/03/22 04:12:10;;;;;;;31.52;15.15;;;;;;;1.15;54.38;102289.56;5096091;28;20473;-76
2022/03/22 04:14:39;;;;;;;28.85;14.80;;;;;;;1.26;53.99;102297.59;5095341;28;20150;-76
2022/03/22 04:17:09;;;;;;;29.10;15.73;;;;;;;1.05;54.42;102298.22;5096055;28;20040;-76
2022/03/22 04:19:38;;;;;;;32.80;16.33;;;;;;;0.85;54.92;102300.63;5095856;28;20055;-76
2022/03/22 04:22:08;;;;;;;31.40;15.68;;;;;;;1.01;54.89;102301.69;5095779;28;20050;-77
2022/03/22 04:24:38;;;;;;;31.83;14.98;;;;;;;1.00;55.19;102305.19;5095955;28;20041;-77
2022/03/22 04:32:43;;;;;;;28.40;16.30;;;;;;;0.86;55.93;102312.00;5077813;28;20076;-77
2022/03/22 04:35:14;;;;;;;;;;;;;;;0.88;55.49;102312.06;5096024;28;20048;-77
2022/03/22 04:37:42;;;;;;;30.55;15.48;;;;;;;0.84;55.75;102304.09;5095209;28;20330;-80
2022/03/22 04:40:14;;;;;;;28.85;15.90;;;;;;;0.81;55.40;102313.72;5095822;28;20141;-79
2022/03/22 04:42:42;;;;;;;33.42;16.20;;;;;;;0.71;56.09;102317.09;5095073;28;20040;-79
2022/03/22 04:45:12;;;;;;;31.17;16.42;;;;;;;0.74;55.69;102309.22;5077199;28;20098;-79
2022/03/22 04:47:40;;;;;;;32.92;16.88;;;;;;;0.75;55.23;102311.00;5095090;28;20130;-77
2022/03/22 04:50:10;;;;;;;27.50;16.38;;;;;;;0.77;55.52;102309.25;5095478;28;20420;-76
2022/03/22 04:58:16;;;;;;;32.53;16.92;;;;;;;0.94;55.24;102318.25;5095175;28;20123;-77
2022/03/22 05:00:46;;;;;;;38.65;18.35;;;;;;;1.07;54.73;102321.91;5076916;28;20156;-77
2022/03/22 05:03:14;;;;;;;49.05;21.88;;;;;;;1.09;54.74;102318.44;5077137;28;20055;-80
2022/03/22 05:08:25;;;;;;;32.70;17.42;;;;;;;1.05;54.91;102323.63;5082010;28;20047;-78
2022/03/22 05:10:56;;;;;;;34.05;17.23;;;;;;;0.92;55.48;102325.22;5094942;28;20040;-78
2022/03/22 05:13:27;;;;;;;29.90;16.17;;;;;;;1.08;54.48;102324.56;5094725;28;20500;-76
2022/03/22 05:15:55;;;;;;;29.88;15.88;;;;;;;1.13;54.39;102322.84;5094516;28;20047;-76
2022/03/22 05:18:26;;;;;;;29.95;17.27;;;;;;;1.27;53.96;102324.78;5094583;28;20058;-76
2022/03/22 05:20:55;;;;;;;27.60;16.58;;;;;;;1.20;53.79;102328.19;5094976;28;20051;-78
2022/03/22 05:23:23;;;;;;;31.20;16.30;;;;;;;1.18;53.87;102325.53;5094885;28;20047;-76
2022/03/22 05:25:52;;;;;;;30.13;15.82;;;;;;;1.26;52.91;102323.00;5094309;28;20048;-76
2022/03/22 05:28:21;;;;;;;31.30;16.45;;;;;;;1.31;53.36;102331.81;5094646;28;20056;-76
2022/03/22 05:30:49;;;;;;;34.85;16.70;;;;;;;1.19;53.73;102326.44;5094242;28;20040;-78
2022/03/22 05:33:18;;;;;;;30.23;16.25;;;;;;;1.23;53.22;102330.84;5094097;28;20127;-75
2022/03/22 05:35:46;;;;;;;26.98;16.08;;;;;;;1.38;52.50;102333.66;5093916;28;20802;-75
2022/03/22 05:38:15;;;;;;;34.88;16.60;;;;;;;1.50;52.47;102332.88;5094374;28;20047;-77
2022/03/22 05:40:43;;;;;;;31.00;15.48;;;;;;;1.58;52.30;102337.38;5094055;28;20036;-77
2022/03/22 05:43:11;;;;;;;33.50;16.88;;;;;;;1.71;51.85;102327.81;5094059;28;20051;-78
2022/03/22 05:45:46;;;;;;;30.33;16.48;;;;;;;1.76;52.13;102330.53;5093967;28;20445;-77
2022/03/22 05:48:14;;;;;;;29.25;15.25;;;;;;;1.73;52.21;102321.72;5094062;28;20040;-78
2022/03/22 05:50:43;;;;;;;35.50;14.82;;;;;;;1.84;52.18;102329.72;5093868;28;20093;-78
2022/03/22 05:53:11;;;;;;;26.92;14.07;;;;;;;2.03;51.30;102330.75;5093626;28;20051;-76
2022/03/22 05:55:40;;;;;;;25.45;14.32;;;;;;;2.18;50.75;102338.75;5093405;28;20048;-78
2022/03/22 05:58:09;;;;;;;35.22;15.15;;;;;;;2.35;49.79;102343.28;5094139;28;20079;-80
2022/03/22 06:00:37;;;;;;;29.35;15.45;;;;;;;2.42;49.63;102339.81;5093598;28;20040;-79
2022/03/22 06:03:07;;;;;;;27.45;15.38;;;;;;;2.62;49.13;102343.44;5093794;28;20044;-78
2022/03/22 06:05:37;;;;;;;23.25;13.82;;;;;;;2.76;47.89;102341.75;5093570;28;20407;-80
2022/03/22 06:08:05;;;;;;;25.70;13.90;;;;;;;2.93;47.18;102343.59;5075149;28;20131;-78
2022/03/22 06:10:39;;;;;;;26.05;14.10;;;;;;;3.12;46.56;102346.31;5093140;28;20040;-78
2022/03/22 06:13:08;;;;;;;24.55;13.30;;;;;;;3.18;46.25;102332.25;5093368;28;20386;-79
2022/03/22 06:15:36;;;;;;;23.08;14.13;;;;;;;3.32;45.62;102338.47;5093003;28;20098;-78
2022/03/22 06:18:09;;;;;;;27.23;13.82;;;;;;;3.42;45.17;102339.38;5093262;28;20067;-79
2022/03/22 06:20:38;;;;;;;30.38;14.10;;;;;;;3.60;44.55;102349.09;5093321;28;20394;-81
2022/03/22 06:23:10;;;;;;;29.23;13.52;;;;;;;3.70;44.23;102349.13;5093091;28;20051;-78
2022/03/22 06:25:39;;;;;;;24.23;12.85;;;;;;;3.81;43.54;102349.13;5092891;28;20044;-82
2022/03/22 06:28:10;;;;;;;28.08;14.20;;;;;;;3.93;42.99;102349.13;5093057;28;20102;-81
2022/03/22 06:30:39;;;;;;;26.90;14.00;;;;;;;4.05;42.46;102347.38;5092746;28;20048;-80
2022/03/22 06:33:16;;;;;;;25.42;13.05;;;;;;;4.24;41.99;102351.75;5075522;28;20044;-80
2022/03/22 06:35:46;;;;;;;25.33;13.10;;;;;;;4.34;41.89;102353.50;5093336;28;20064;-77
2022/03/22 06:38:15;;;;;;;27.42;14.27;;;;;;;4.56;41.39;102352.63;5093617;28;20048;-79
2022/03/22 06:40:44;;;;;;;23.40;11.38;;;;;;;4.67;40.39;102349.94;5093082;28;20048;-80
2022/03/22 06:43:15;;;;;;;22.13;11.95;;;;;;;4.79;40.06;102349.03;5093143;28;20444;-79
2022/03/22 06:45:45;;;;;;;22.33;11.88;;;;;;;4.92;38.97;102355.13;5093197;28;20127;-80
2022/03/22 06:48:15;;;;;;;21.35;11.57;;;;;;;5.12;38.66;102361.25;5093426;28;20041;-82
2022/03/22 06:50:47;;;;;;;28.73;12.57;;;;;;;5.29;38.55;102345.28;5093108;28;20040;-82
2022/03/22 06:53:16;;;;;;;21.35;11.70;;;;;;;5.40;38.35;102347.00;5092487;28;20169;-82
2022/03/22 06:55:44;;;;;;;19.35;11.10;;;;;;;5.64;37.53;102353.91;5092859;28;20131;-82
2022/03/22 06:58:14;;;;;;;25.15;11.77;;;;;;;5.63;37.95;102357.47;5074972;28;20139;-82
2022/03/22 07:00:43;;;;;;;22.10;11.82;;;;;;;5.61;37.51;102353.94;5092803;28;20048;-82
2022/03/22 07:03:11;;;;;;;21.92;11.45;;;;;;;5.81;37.28;102351.16;5093161;28;20374;-75
2022/03/22 07:05:42;;;;;;;23.75;12.57;;;;;;;5.78;36.95;102355.59;5092484;28;20461;-76
2022/03/22 07:08:11;;;;;;;23.02;12.13;;;;;;;5.79;37.55;102344.09;5093070;28;20052;-76
2022/03/22 07:10:40;;;;;;;21.73;11.73;;;;;;;5.86;37.27;102344.03;5093186;28;20059;-79
2022/03/22 07:13:11;;;;;;;26.17;11.95;;;;;;;5.90;37.35;102345.84;5093070;28;20044;-75
2022/03/22 07:15:40;;;;;;;26.05;11.55;;;;;;;6.10;36.52;102350.09;5092385;28;20138;-74
2022/03/22 07:18:13;;;;;;;21.77;11.18;;;;;;;6.19;36.41;102348.25;5092781;28;20052;-76
2022/03/22 07:20:43;;;;;;;25.95;12.13;;;;;;;6.24;36.12;102345.53;5097312;28;20055;-75
2022/03/22 07:23:11;;;;;;;22.23;11.77;;;;;;;6.29;36.07;102349.91;5092885;28;20388;-73
2022/03/22 07:25:39;;;;;;;21.55;11.57;;;;;;;6.36;35.84;102348.06;5092279;28;20412;-74
2022/03/22 07:28:08;;;;;;;18.92;11.38;;;;;;;6.36;35.95;102349.84;5092411;28;20040;-73
2022/03/22 07:30:36;;;;;;;19.05;11.13;;;;;;;6.46;35.52;102348.84;5092812;28;20098;-73
2022/03/22 07:33:05;;;;;;;20.88;11.45;;;;;;;6.56;35.48;102347.88;5092594;28;20094;-76
2022/03/22 07:35:33;;;;;;;24.10;10.90;;;;;;;6.72;35.23;102348.59;5092801;28;20369;-80
2022/03/22 07:38:03;;;;;;;18.77;11.25;;;;;;;7.03;34.95;102359.72;5092512;28;20119;-75
2022/03/22 07:40:32;;;;;;;19.70;10.35;;;;;;;7.16;34.12;102350.72;5074616;28;20135;-76
2022/03/22 07:43:00;;;;;;;19.92;11.73;;;;;;;7.20;34.27;102352.44;5092512;28;20102;-76
2022/03/22 07:45:28;;;;;;;21.02;11.20;;;;;;;7.26;34.18;102354.16;5092877;28;20074;-76
2022/03/22 07:47:56;;;;;;;21.05;12.05;;;;;;;7.22;34.42;102350.63;5092112;28;20047;-76
2022/03/22 07:53:12;;;;;;;23.73;12.02;;;;;;;7.36;34.43;102353.13;5092455;28;20048;-78
2022/03/22 07:55:42;;;;;;;20.00;12.10;;;;;;;7.47;34.63;102346.75;5074418;28;20075;-77
2022/03/22 07:58:11;;;;;;;25.17;12.82;;;;;;;7.45;34.44;102348.56;5092645;28;20051;-76
2022/03/22 08:00:42;;;;;;;22.52;12.23;;;;;;;7.67;34.35;102343.81;5092398;28;20044;-82
2022/03/22 08:03:13;;;;;;;22.92;12.82;;;;;;;7.70;34.55;102345.53;5092432;28;20069;-76
2022/03/22 08:05:45;;;;;;;23.08;13.05;;;;;;;8.07;33.68;102339.66;5094208;28;20044;-76
2022/03/22 08:08:16;;;;;;;26.88;13.02;;;;;;;8.27;33.15;102342.84;5095615;28;20036;-76
2022/03/22 08:11:00;;;;;;;20.90;12.35;;;;;;;8.36;32.87;102342.72;5094770;28;20404;-76
2022/03/22 08:13:29;;;;;;;22.80;13.75;;;;;;;8.46;32.51;102333.66;5095963;28;20044;-76
2022/03/22 08:15:57;;;;;;;26.42;13.05;;;;;;;8.57;32.76;102338.78;5094724;28;20048;-76
2022/03/22 08:18:26;;;;;;;22.15;13.45;;;;;;;8.47;32.85;102342.53;5095265;28;20102;-76
2022/03/22 08:20:54;;;;;;;23.42;13.02;;;;;;;8.50;32.80;102332.72;5095245;28;20036;-76
2022/03/22 08:23:24;;;;;;;24.35;13.95;;;;;;;8.56;32.63;102329.94;5095239;28;20040;-77
2022/03/22 08:25:52;;;;;;;21.00;12.50;;;;;;;8.58;32.43;102328.09;5076980;28;20076;-77
2022/03/22 08:28:21;;;;;;;25.60;13.95;;;;;;;8.95;30.84;102324.72;5095330;28;20130;-75
2022/03/22 08:30:50;;;;;;;24.55;14.45;;;;;;;9.01;30.89;102329.94;5077249;28;20048;-77
2022/03/22 08:33:18;;;;;;;23.83;13.95;;;;;;;9.10;31.22;102323.53;5095456;28;20093;-76
2022/03/22 08:35:49;;;;;;;25.58;14.50;;;;;;;9.09;30.84;102320.00;5094880;28;20151;-76
2022/03/22 08:38:20;;;;;;;23.30;13.50;;;;;;;9.23;30.76;102324.16;5095603;28;20530;-77
2022/03/22 08:40:50;;;;;;;23.08;13.73;;;;;;;9.41;30.48;102310.44;5095150;28;20105;-77
2022/03/22 08:43:20;;;;;;;23.65;13.18;;;;;;;9.58;30.14;102318.03;5095262;28;20053;-76
2022/03/22 08:45:49;;;;;;;26.52;13.23;;;;;;;9.93;29.55;102314.50;5095257;28;20047;-76
2022/03/22 08:48:17;;;;;;;28.70;13.85;;;;;;;9.90;29.91;102312.81;5094912;28;20047;-77
2022/03/22 08:50:47;;;;;;;25.63;13.38;;;;;;;9.93;29.97;102307.38;5095315;28;20131;-80
2022/03/22 08:53:16;;;;;;;24.35;14.18;;;;;;;10.18;29.40;102309.44;5095461;28;20044;-77
2022/03/22 08:55:52;;;;;;;24.50;15.02;;;;;;;9.90;29.91;102306.59;5095210;28;20043;-77
2022/03/22 08:58:22;;;;;;;26.42;14.40;;;;;;;10.36;29.34;102302.78;5095488;28;20078;-77
2022/03/22 09:00:50;;;;;;;27.65;14.35;;;;;;;10.32;29.17;102304.66;5095104;28;20130;-77
2022/03/22 09:03:21;;;;;;;26.75;13.88;;;;;;;10.37;29.15;102305.41;5095001;28;20444;-77
2022/03/22 09:08:36;;;;;;;24.83;14.27;;;;;;;10.16;29.96;102289.94;5095269;28;20048;-77
2022/03/22 09:11:06;;;;;;;27.15;14.50;;;;;;;10.08;30.14;102295.47;5094445;28;20040;-76
2022/03/22 09:13:39;;;;;;;32.88;14.65;;;;;;;10.44;29.39;102292.78;5095074;28;20103;-76
2022/03/22 09:16:12;;;;;;;21.38;13.55;;;;;;;10.62;29.36;102288.75;5094353;28;20131;-77
2022/03/22 09:18:41;;;;;;;25.73;14.67;;;;;;;10.77;29.13;102285.63;5094776;28;20509;-77
2022/03/22 09:21:10;;;;;;;27.85;15.07;;;;;;;10.64;28.98;102279.78;5094392;28;20284;-77
2022/03/22 09:23:40;;;;;;;26.13;14.43;;;;;;;10.71;28.75;102276.00;5076955;28;20125;-77
2022/03/22 09:26:10;;;;;;;25.83;14.50;;;;;;;10.64;29.06;102274.44;5094300;28;20056;-77
2022/03/22 09:28:38;;;;;;;22.70;13.88;;;;;;;10.60;29.44;102267.41;5094761;28;20040;-76
2022/03/22 09:31:08;;;;;;;24.52;14.48;;;;;;;10.71;29.13;102270.69;5094418;28;20060;-76
2022/03/22 09:33:37;;;;;;;24.25;13.43;;;;;;;10.83;28.92;102270.31;5076324;28;20044;-76
2022/03/22 09:36:06;;;;;;;26.95;14.43;;;;;;;11.39;27.82;102272.19;5094295;28;20067;-77
2022/03/22 09:38:35;;;;;;;24.00;14.02;;;;;;;11.51;27.47;102273.59;5094502;28;20048;-77
2022/03/22 09:41:05;;;;;;;23.48;14.02;;;;;;;11.34;27.86;102271.44;5093783;28;20602;-76
2022/03/22 09:43:38;;;;;;;26.23;14.27;;;;;;;11.11;28.08;102269.50;5094204;28;20047;-76
2022/03/22 09:46:09;;;;;;;23.30;13.93;;;;;;;11.35;27.78;102258.03;5094044;28;20100;-77
2022/03/22 09:48:39;;;;;;;22.73;13.32;;;;;;;11.49;27.49;102262.97;5094009;28;20047;-77
2022/03/22 09:53:53;;;;;;;27.85;14.82;;;;;;;11.07;28.47;102254.47;5093434;28;20043;-78
2022/03/22 09:56:25;;;;;;;29.00;14.00;;;;;;;11.13;28.38;102259.63;5092988;28;20134;-78
2022/03/22 09:58:54;;;;;;;25.25;13.82;;;;;;;11.86;26.70;102259.09;5093050;28;20040;-78
2022/03/22 10:01:22;;;;;;;23.35;14.15;;;;;;;12.03;26.33;102246.88;5093351;28;20039;-77
2022/03/22 10:04:00;;;;;;;24.13;12.82;;;;;;;12.07;25.87;102242.31;5093639;28;20123;-79
2022/03/22 10:06:29;;;;;;;23.95;13.65;;;;;;;11.91;26.23;102247.31;5093650;28;20501;-77
2022/03/22 10:08:58;;;;;;;26.98;14.30;;;;;;;11.70;26.67;102242.66;5093499;28;20040;-77
2022/03/22 10:11:37;;;;;;;24.77;15.30;;;;;;;11.82;26.80;102236.94;5093914;28;20050;-77
2022/03/22 10:14:09;;;;;;;26.17;14.05;;;;;;;11.97;27.11;102238.22;5093630;28;20098;-77
2022/03/22 10:16:46;;;;;;;25.02;14.18;;;;;;;12.21;26.50;102228.44;5094139;28;20090;-75
2022/03/22 10:19:21;;;;;;;27.77;14.10;;;;;;;12.51;25.98;102221.09;5075196;28;20059;-76
2022/03/22 10:21:50;;;;;;;26.80;14.98;;;;;;;12.53;25.53;102230.81;5093347;28;20040;-77
2022/03/22 10:24:19;;;;;;;25.27;13.27;;;;;;;12.50;25.96;102230.06;5093596;28;20040;-76
2022/03/22 10:26:50;;;;;;;24.55;14.15;;;;;;;12.44;26.32;102224.94;5093548;28;20043;-76
2022/03/22 10:29:20;;;;;;;26.50;15.25;;;;;;;12.50;25.86;102219.38;5093211;28;20036;-77
2022/03/22 10:31:49;;;;;;;21.30;13.27;;;;;;;12.83;25.63;102206.50;5093584;28;20048;-76
2022/03/22 10:34:18;;;;;;;28.98;14.02;;;;;;;12.78;25.42;102216.53;5093033;28;20044;-76
2022/03/22 10:36:46;;;;;;;22.15;13.25;;;;;;;12.77;25.10;102217.47;5093461;28;20067;-75
2022/03/22 10:39:17;;;;;;;22.10;13.60;;;;;;;12.68;25.72;102209.78;5093032;28;20400;-77
2022/03/22 10:41:46;;;;;;;24.50;14.55;;;;;;;12.69;25.57;102209.72;5075565;28;20135;-77
2022/03/22 10:44:17;;;;;;;21.95;13.18;;;;;;;13.03;24.84;102211.97;5093047;28;20050;-76
2022/03/22 10:46:48;;;;;;;22.52;13.55;;;;;;;12.92;24.61;102202.59;5093319;28;20050;-76
2022/03/22 10:49:18;;;;;;;24.17;14.43;;;;;;;12.81;25.21;102192.28;5092994;28;20064;-76
2022/03/22 10:52:09;;;;;;;24.55;13.45;;;;;;;12.72;25.24;102192.66;5092721;28;20036;-76
2022/03/22 10:54:37;;;;;;;24.08;13.80;;;;;;;12.78;25.33;102193.28;5093255;28;20040;-77
2022/03/22 10:57:08;;;;;;;22.77;12.60;;;;;;;13.16;24.71;102178.38;5092711;28;20119;-76
2022/03/22 10:59:37;;;;;;;19.48;13.23;;;;;;;13.43;24.26;102186.28;5093338;28;20157;-76
2022/03/22 11:02:08;;;;;;;22.40;13.77;;;;;;;13.44;24.23;102177.28;5092634;28;20051;-77
2022/03/22 11:04:38;;;;;;;23.25;13.77;;;;;;;13.23;24.44;102180.88;5093243;28;20040;-76
2022/03/22 11:07:09;;;;;;;22.55;13.43;;;;;;;13.15;24.37;102173.97;5092514;28;20044;-77
2022/03/22 11:09:38;;;;;;;23.13;13.52;;;;;;;13.06;24.66;102166.31;5093192;28;20477;-76
2022/03/22 11:12:08;;;;;;;22.00;14.15;;;;;;;13.34;24.79;102165.22;5092731;28;20036;-76
2022/03/22 11:14:37;;;;;;;22.15;12.65;;;;;;;13.57;24.09;102165.09;5093063;28;20440;-76
2022/03/22 11:17:07;;;;;;;20.52;12.75;;;;;;;13.35;24.16;102158.91;5092667;28;20558;-76
2022/03/22 11:19:39;;;;;;;22.48;12.88;;;;;;;13.52;23.87;102153.72;5074393;28;20102;-76
2022/03/22 11:22:09;;;;;;;19.25;12.57;;;;;;;13.58;23.73;102153.44;5092461;28;20401;-78
2022/03/22 11:24:38;;;;;;;20.33;12.68;;;;;;;13.72;23.78;102144.81;5092286;28;20127;-77
2022/03/22 11:27:08;;;;;;;18.67;11.77;;;;;;;13.73;23.69;102135.84;5091935;28;20040;-78
2022/03/22 11:29:39;;;;;;;19.33;9.80;;;;;;;14.10;23.50;102139.56;5092229;28;20123;-77
2022/03/22 11:34:58;;;;;;;20.35;11.55;;;;;;;13.99;23.50;102132.88;5092621;28;20044;-77
2022/03/22 11:37:30;;;;;;;21.52;11.38;;;;;;;14.18;22.76;102122.16;5092102;28;20062;-77
2022/03/22 11:42:52;;;;;;;19.58;10.82;;;;;;;14.16;23.21;102129.41;5096239;28;20070;-77
2022/03/22 11:45:21;;;;;;;17.88;11.15;;;;;;;14.13;23.07;102124.19;5095921;28;20044;-76
2022/03/22 11:47:55;;;;;;;19.58;11.68;;;;;;;13.84;23.63;102116.59;5096435;28;20393;-77
2022/03/22 11:50:23;;;;;;;23.02;11.43;;;;;;;14.07;23.40;102119.09;5096057;28;20079;-77
2022/03/22 11:52:57;;;;;;;18.08;11.38;;;;;;;14.37;23.26;102107.91;5096043;28;20048;-77
2022/03/22 11:55:27;;;;;;;19.08;10.90;;;;;;;14.20;23.16;102106.00;5096225;28;20036;-77
2022/03/22 11:57:59;;;;;;;19.27;10.70;;;;;;;14.13;23.21;102102.72;5096402;28;20044;-76
2022/03/22 12:00:42;;;;;;;18.50;11.98;;;;;;;14.32;22.97;102092.00;5095884;28;20405;-76
2022/03/22 12:03:12;;;;;;;;;;;;;;;14.16;23.20;102099.91;5096636;28;20050;-77
2022/03/22 12:05:42;;;;;;;19.20;11.00;;;;;;;14.46;22.87;102086.88;5096418;28;20292;-76
2022/03/22 12:08:13;;;;;;;18.58;11.70;;;;;;;14.58;22.61;102091.69;5095985;28;20062;-76
2022/03/22 12:10:46;;;;;;;17.08;11.25;;;;;;;14.55;22.83;102086.44;5095726;28;20043;-76